Time;durP1;ratioP1;P1;durP2;ratioP2;P2;SDS_P1;SDS_P2;PMS_P1;PMS_P2;Temp;Humidity;BMP_temperature;BMP_pressure;BME280_temperature;BME280_humidity;BME280_pressure;Samples;Min_cycle;Max_cycle;Signal;HPM_P1;HPM_P2
2023/06/03 00:01:27;;;;;;;15.98;9.98;;;;;;;14.52;70.27;99038.63;5052454;28;20040;-63
2023/06/03 00:03:53;;;;;;;14.38;8.60;;;;;;;14.29;69.99;99006.16;5052475;28;20041;-66
2023/06/03 00:06:18;;;;;;;9.65;8.02;;;;;;;14.42;69.89;99036.09;5051636;28;20103;-62
2023/06/03 00:08:44;;;;;;;14.68;7.50;;;;;;;14.37;70.07;99030.38;5051982;28;20086;-63
2023/06/03 00:11:11;;;;;;;12.88;8.13;;;;;;;14.32;70.13;99032.75;5034564;28;20055;-64
2023/06/03 00:13:38;;;;;;;9.40;7.20;;;;;;;14.23;70.38;99037.28;5052461;28;20075;-65
2023/06/03 00:16:04;;;;;;;9.15;7.78;;;;;;;14.15;70.29;99046.19;5051870;28;20436;-63
2023/06/03 00:18:30;;;;;;;14.55;7.50;;;;;;;14.15;70.73;99048.03;5051738;28;20491;-68
2023/06/03 00:20:56;;;;;;;10.50;8.90;;;;;;;14.20;70.52;99056.47;5052354;28;20100;-63
2023/06/03 00:23:22;;;;;;;13.43;7.65;;;;;;;13.97;70.28;99024.78;5052463;28;20175;-65
2023/06/03 00:25:48;;;;;;;8.77;7.75;;;;;;;14.25;70.05;99099.03;5050956;28;20081;-65
2023/06/03 00:28:13;;;;;;;14.50;8.35;;;;;;;14.23;70.04;99095.66;5051816;28;20064;-63
2023/06/03 00:30:39;;;;;;;11.95;8.18;;;;;;;14.13;69.63;99077.81;5052015;28;20372;-64
2023/06/03 00:33:05;;;;;;;11.57;8.68;;;;;;;14.05;70.05;99096.63;5052382;28;20025;-64
2023/06/03 00:35:31;;;;;;;11.57;8.50;;;;;;;14.01;70.32;99122.19;5051470;28;20033;-68
2023/06/03 00:37:57;;;;;;;12.43;7.97;;;;;;;14.01;70.66;99123.03;5052179;28;20021;-64
2023/06/03 00:40:22;;;;;;;12.10;8.00;;;;;;;14.05;70.61;99118.16;5033936;28;20025;-63
2023/06/03 00:42:48;;;;;;;10.15;8.30;;;;;;;14.06;70.59;99099.16;5052282;28;20049;-65
2023/06/03 00:45:13;;;;;;;12.93;8.60;;;;;;;14.14;70.50;99094.81;5033400;28;20412;-65
2023/06/03 00:47:39;;;;;;;15.30;8.63;;;;;;;14.04;70.13;99097.66;5054898;28;20032;-65
2023/06/03 00:50:06;;;;;;;11.68;8.18;;;;;;;13.96;70.31;99092.22;5055899;28;20033;-65
2023/06/03 00:52:32;;;;;;;14.48;8.23;;;;;;;13.92;70.07;99095.25;5055816;28;20025;-68
2023/06/03 00:54:58;;;;;;;11.55;8.30;;;;;;;13.75;70.45;99066.63;5054966;28;20090;-64
2023/06/03 00:57:24;;;;;;;11.27;8.15;;;;;;;13.90;70.41;99089.19;5054997;28;20125;-63
2023/06/03 00:59:50;;;;;;;11.45;8.13;;;;;;;13.91;70.35;99088.19;5055702;28;20048;-63
2023/06/03 01:02:17;;;;;;;12.23;7.55;;;;;;;13.86;70.72;99084.28;5037862;28;20036;-63
2023/06/03 01:04:45;;;;;;;11.07;8.10;;;;;;;13.80;70.61;99077.72;5054801;28;20045;-64
2023/06/03 01:07:16;;;;;;;11.73;8.10;;;;;;;13.83;70.63;99082.78;5055036;28;20432;-64
2023/06/03 01:10:00;;;;;;;12.38;8.27;;;;;;;13.77;70.63;99070.00;5054966;28;20127;-63
2023/06/03 01:12:29;;;;;;;13.95;8.30;;;;;;;13.70;70.64;99055.50;5054813;28;20139;-62
2023/06/03 01:14:59;;;;;;;11.80;8.20;;;;;;;13.69;70.71;99068.13;5054796;28;20028;-64
2023/06/03 01:17:27;;;;;;;11.18;9.05;;;;;;;13.63;71.00;99066.09;5054636;28;20036;-69
2023/06/03 01:19:56;;;;;;;11.88;8.25;;;;;;;13.57;70.87;99055.94;5053426;28;20041;-64
2023/06/03 01:22:26;;;;;;;10.48;8.50;;;;;;;13.32;71.34;99002.91;5054806;28;20090;-64
2023/06/03 01:25:05;;;;;;;16.15;8.60;;;;;;;13.69;71.22;99048.44;5054556;28;20049;-64
2023/06/03 01:27:30;;;;;;;9.77;8.55;;;;;;;13.61;71.08;99044.72;5055202;28;20067;-65
2023/06/03 01:29:56;;;;;;;11.52;8.88;;;;;;;13.61;71.17;99036.66;5054642;28;20516;-65
2023/06/03 01:32:22;;;;;;;12.23;8.95;;;;;;;13.67;71.00;99050.44;5054515;28;20039;-63
2023/06/03 01:34:49;;;;;;;14.02;8.32;;;;;;;13.66;71.25;99049.63;5054681;28;20029;-64
2023/06/03 01:37:15;;;;;;;16.15;8.70;;;;;;;13.63;71.17;99044.56;5036823;28;20465;-65
2023/06/03 01:39:42;;;;;;;11.30;8.85;;;;;;;13.61;71.20;99043.84;5054014;28;20108;-64
2023/06/03 01:42:11;;;;;;;12.57;8.73;;;;;;;13.66;71.57;99048.75;5054673;28;20033;-64
2023/06/03 01:44:37;;;;;;;9.82;8.43;;;;;;;13.61;71.92;99049.22;5053939;28;20071;-63
2023/06/03 01:47:04;;;;;;;12.15;8.18;;;;;;;13.59;71.88;99046.72;5054431;28;20344;-65
2023/06/03 01:49:33;;;;;;;10.45;8.90;;;;;;;13.60;71.93;99052.94;5055025;28;20037;-65
2023/06/03 01:52:00;;;;;;;10.07;8.65;;;;;;;13.61;72.47;99047.41;5054440;28;20036;-64
2023/06/03 01:54:26;;;;;;;13.75;10.00;;;;;;;13.64;72.67;99059.69;5053372;28;20090;-65
2023/06/03 01:56:56;;;;;;;12.77;10.18;;;;;;;13.64;72.47;99051.63;5054409;28;20099;-63
2023/06/03 01:59:24;;;;;;;15.48;10.60;;;;;;;13.52;72.50;99032.25;5053550;28;20024;-64
2023/06/03 02:01:54;;;;;;;13.55;10.35;;;;;;;13.60;73.14;99045.72;5053469;28;20102;-65
2023/06/03 02:04:19;;;;;;;15.02;10.25;;;;;;;13.57;73.75;99046.06;5036489;28;20413;-64
2023/06/03 02:06:49;;;;;;;13.63;9.38;;;;;;;13.58;73.54;99053.13;5054531;28;20033;-64
2023/06/03 02:09:14;;;;;;;13.10;8.82;;;;;;;13.54;73.56;99054.44;5036710;28;20025;-64
2023/06/03 02:11:42;;;;;;;10.50;8.00;;;;;;;13.55;73.32;99064.19;5053980;28;20036;-63
2023/06/03 02:14:08;;;;;;;11.32;7.00;;;;;;;13.40;73.30;99052.31;5053763;28;20028;-65
2023/06/03 02:16:33;;;;;;;11.63;6.93;;;;;;;13.33;73.92;99055.66;5036429;28;20020;-64
2023/06/03 02:19:03;;;;;;;9.57;6.80;;;;;;;13.35;74.35;99069.78;5053987;28;20041;-64
2023/06/03 02:21:28;;;;;;;9.35;6.00;;;;;;;13.27;73.73;99056.31;5053505;28;20037;-64
2023/06/03 02:23:54;;;;;;;7.35;5.40;;;;;;;13.14;73.66;99055.91;5036057;28;20356;-64
2023/06/03 02:26:19;;;;;;;6.60;5.10;;;;;;;13.12;73.33;99063.28;5054164;28;20104;-63
2023/06/03 02:28:45;;;;;;;6.55;4.90;;;;;;;12.98;73.23;99062.84;5053978;28;20029;-65
2023/06/03 02:31:10;;;;;;;8.35;3.75;;;;;;;12.91;73.53;99065.34;5052839;28;20029;-64
2023/06/03 02:33:36;;;;;;;5.22;3.88;;;;;;;12.82;73.30;99068.13;5053091;28;20033;-65
2023/06/03 02:36:01;;;;;;;6.65;3.75;;;;;;;12.81;73.67;99078.03;5053529;28;20079;-64
2023/06/03 02:38:27;;;;;;;7.47;3.85;;;;;;;12.73;73.69;99078.78;5054092;28;20662;-64
2023/06/03 02:40:52;;;;;;;5.20;3.67;;;;;;;12.68;73.63;99078.44;5053047;28;20024;-64
2023/06/03 02:43:18;;;;;;;5.93;3.50;;;;;;;12.68;73.33;99078.44;5053342;28;20079;-63
2023/06/03 02:45:43;;;;;;;4.72;3.35;;;;;;;12.60;73.42;99073.84;5053914;28;20025;-65
2023/06/03 02:48:09;;;;;;;5.93;3.10;;;;;;;12.54;73.28;99070.91;5053525;28;20128;-65
2023/06/03 02:50:34;;;;;;;4.63;2.70;;;;;;;12.31;73.55;99049.94;5052869;28;20025;-64
2023/06/03 02:53:01;;;;;;;4.75;2.55;;;;;;;12.40;73.08;99083.91;5035383;28;20028;-63
2023/06/03 02:55:27;;;;;;;2.72;2.25;;;;;;;12.17;73.19;99065.59;5052877;28;20016;-65
2023/06/03 02:57:53;;;;;;;2.85;2.30;;;;;;;12.24;73.42;99081.06;5053154;28;20087;-64
2023/06/03 03:00:18;;;;;;;4.25;2.38;;;;;;;12.23;73.37;99087.44;5052928;28;20075;-64
2023/06/03 03:02:44;;;;;;;2.35;2.15;;;;;;;12.11;73.50;99074.25;5035265;28;20114;-64
2023/06/03 03:05:10;;;;;;;2.80;2.40;;;;;;;12.26;73.71;99085.28;5052977;28;20472;-67
2023/06/03 03:07:37;;;;;;;2.03;1.80;;;;;;;12.26;73.38;99092.50;5052908;28;20415;-62
2023/06/03 03:10:06;;;;;;;2.00;1.75;;;;;;;12.17;73.16;99094.25;5051857;28;20040;-64
2023/06/03 03:12:31;;;;;;;3.47;1.90;;;;;;;12.18;73.32;99096.78;5034787;28;20400;-65
2023/06/03 03:14:57;;;;;;;2.10;1.67;;;;;;;12.20;72.90;99100.16;5052659;28;20044;-64
2023/06/03 03:17:22;;;;;;;2.15;1.73;;;;;;;12.27;73.11;99107.59;5051953;28;20440;-63
2023/06/03 03:19:48;;;;;;;2.25;1.33;;;;;;;12.27;72.74;99100.41;5052359;28;20378;-66
2023/06/03 03:22:14;;;;;;;1.98;1.38;;;;;;;12.31;72.65;99087.53;5052785;28;20068;-63
2023/06/03 03:24:40;;;;;;;1.85;1.63;;;;;;;12.10;72.33;99060.97;5035331;28;20028;-63
2023/06/03 03:27:06;;;;;;;1.77;1.48;;;;;;;12.21;72.56;99103.69;5052611;28;20033;-65
2023/06/03 03:29:33;;;;;;;2.03;1.70;;;;;;;12.17;72.19;99089.72;5052514;28;20040;-64
2023/06/03 03:32:07;;;;;;;2.80;1.50;;;;;;;12.12;73.34;99078.63;5051881;28;20032;-64
2023/06/03 03:34:36;;;;;;;3.42;1.58;;;;;;;12.23;72.66;99106.22;5042555;28;20029;-64
2023/06/03 03:37:03;;;;;;;2.08;1.20;;;;;;;12.16;71.87;99081.81;5052892;28;20033;-64
2023/06/03 03:39:29;;;;;;;1.42;1.13;;;;;;;12.14;71.98;99078.44;5052034;28;20037;-65
2023/06/03 03:41:55;;;;;;;2.60;1.38;;;;;;;12.16;71.36;99087.19;5034369;28;20043;-65
2023/06/03 03:44:21;;;;;;;1.40;1.23;;;;;;;12.25;71.56;99109.59;5052815;28;20041;-64
2023/06/03 03:46:51;;;;;;;1.02;0.90;;;;;;;12.24;71.77;99119.50;5034875;28;20035;-65
2023/06/03 03:49:26;;;;;;;1.67;0.95;;;;;;;12.19;71.41;99111.06;5051379;28;20040;-64
2023/06/03 03:51:52;;;;;;;1.30;1.20;;;;;;;12.21;71.48;99109.06;5051896;28;20384;-63
2023/06/03 03:54:22;;;;;;;1.20;1.10;;;;;;;12.19;71.36;99121.81;5052638;28;20033;-63
2023/06/03 03:56:47;;;;;;;2.05;1.25;;;;;;;12.06;71.67;99116.81;5052131;28;20120;-64
2023/06/03 03:59:16;;;;;;;3.13;1.10;;;;;;;12.08;71.31;99128.22;5034487;28;20037;-67
2023/06/03 04:01:43;;;;;;;2.20;1.10;;;;;;;12.03;71.81;99127.81;5034944;28;20466;-64
2023/06/03 04:04:10;;;;;;;3.35;1.50;;;;;;;12.03;71.84;99117.06;5052840;28;20434;-64
2023/06/03 04:06:37;;;;;;;0.75;0.75;;;;;;;12.04;71.58;99116.06;5051162;28;20035;-63
2023/06/03 04:09:04;;;;;;;1.00;0.90;;;;;;;12.03;71.42;99122.44;5052037;28;20033;-64
2023/06/03 04:11:36;;;;;;;1.73;0.80;;;;;;;11.89;71.48;99095.13;5052312;28;20025;-64
2023/06/03 04:14:03;;;;;;;1.95;0.70;;;;;;;11.87;71.13;99082.84;5052577;28;20033;-64
2023/06/03 04:16:46;;;;;;;0.90;0.90;;;;;;;12.15;71.61;99123.94;5051634;28;20495;-64
2023/06/03 04:19:30;;;;;;;1.48;0.73;;;;;;;12.16;71.24;99124.75;5051950;28;20123;-65
2023/06/03 04:21:57;;;;;;;0.70;0.70;;;;;;;12.01;70.52;99119.94;5056513;28;20097;-65
2023/06/03 04:24:24;;;;;;;1.50;0.85;;;;;;;11.89;71.08;99111.22;5055915;28;20057;-64
2023/06/03 04:26:49;;;;;;;1.13;0.90;;;;;;;11.88;71.48;99116.72;5055740;28;20044;-62
2023/06/03 04:29:15;;;;;;;1.30;1.10;;;;;;;11.98;71.57;99120.19;5055865;28;20108;-67
2023/06/03 04:31:41;;;;;;;1.42;1.05;;;;;;;12.01;71.05;99109.19;5056116;28;20367;-65
2023/06/03 04:34:06;;;;;;;1.10;1.08;;;;;;;12.06;70.52;99108.75;5056311;28;20032;-65
2023/06/03 04:36:32;;;;;;;1.40;1.30;;;;;;;12.10;70.80;99118.19;5037863;28;20033;-64
2023/06/03 04:38:58;;;;;;;2.55;1.40;;;;;;;12.09;70.92;99116.50;5055302;28;20159;-66
2023/06/03 04:41:27;;;;;;;1.55;1.45;;;;;;;12.09;70.50;99131.72;5056031;28;20112;-65
2023/06/03 04:43:54;;;;;;;2.65;1.40;;;;;;;12.09;70.26;99121.84;5038805;28;20040;-63
2023/06/03 04:46:20;;;;;;;3.17;1.80;;;;;;;12.07;70.43;99126.53;5054831;28;20350;-64
2023/06/03 04:48:48;;;;;;;2.13;1.90;;;;;;;12.08;70.07;99130.91;5055746;28;20040;-69
2023/06/03 04:51:14;;;;;;;1.83;1.40;;;;;;;12.02;69.60;99118.94;5055955;28;20116;-63
2023/06/03 04:53:40;;;;;;;2.17;1.63;;;;;;;12.05;69.82;99134.72;5037889;28;20083;-65
2023/06/03 04:56:08;;;;;;;1.70;1.60;;;;;;;12.12;69.57;99143.03;5055237;28;20404;-64
2023/06/03 04:58:36;;;;;;;1.80;1.60;;;;;;;12.14;69.26;99137.47;5055269;28;20028;-64
2023/06/03 05:01:04;;;;;;;1.85;1.75;;;;;;;12.22;69.26;99145.66;5054953;28;20119;-67
2023/06/03 05:03:30;;;;;;;3.20;1.63;;;;;;;12.14;68.56;99138.34;5054957;28;20029;-65
2023/06/03 05:05:57;;;;;;;1.77;1.48;;;;;;;12.21;68.20;99141.28;5036407;28;20468;-66
2023/06/03 05:08:23;;;;;;;1.95;1.73;;;;;;;11.84;67.77;99083.13;5036903;28;20057;-64
2023/06/03 05:10:48;;;;;;;2.22;1.90;;;;;;;12.15;67.51;99150.75;5036483;28;20436;-67
2023/06/03 05:13:14;;;;;;;1.85;1.67;;;;;;;12.02;67.48;99140.41;5054941;28;20024;-65
2023/06/03 05:15:40;;;;;;;4.45;1.90;;;;;;;12.10;68.11;99147.69;5054562;28;20028;-64
2023/06/03 05:18:05;;;;;;;1.63;1.52;;;;;;;12.23;68.37;99155.38;5054851;28;20052;-65
2023/06/03 05:20:31;;;;;;;2.97;1.73;;;;;;;12.12;67.21;99108.13;5048405;28;20079;-66
2023/06/03 05:22:57;;;;;;;2.30;1.83;;;;;;;12.42;66.59;99149.03;5053859;28;20033;-65
2023/06/03 05:25:23;;;;;;;2.88;1.77;;;;;;;12.39;66.17;99138.59;5054338;28;20449;-65
2023/06/03 05:27:49;;;;;;;4.47;2.22;;;;;;;12.44;66.45;99130.09;5054099;28;20044;-65
2023/06/03 05:30:15;;;;;;;6.35;2.17;;;;;;;12.41;65.95;99128.53;5054481;28;20083;-66
2023/06/03 05:32:41;;;;;;;2.38;2.05;;;;;;;12.45;66.29;99123.72;5054065;28;20032;-65
2023/06/03 05:35:08;;;;;;;3.92;2.25;;;;;;;12.49;66.07;99117.06;5054225;28;20025;-66
2023/06/03 05:37:34;;;;;;;5.15;2.25;;;;;;;12.17;65.71;99060.22;5054338;28;20029;-64
2023/06/03 05:39:59;;;;;;;3.67;1.90;;;;;;;12.60;65.84;99134.78;5054734;28;20068;-66
2023/06/03 05:42:25;;;;;;;4.97;2.17;;;;;;;12.48;65.58;99137.66;5054446;28;20037;-65
2023/06/03 05:44:50;;;;;;;2.88;2.30;;;;;;;12.29;66.43;99127.94;5053957;28;20086;-65
2023/06/03 05:47:16;;;;;;;5.93;2.30;;;;;;;12.08;66.39;99087.13;5054851;28;20116;-65
2023/06/03 05:49:41;;;;;;;4.70;2.47;;;;;;;12.32;66.00;99124.09;5055078;28;20025;-64
2023/06/03 05:52:07;;;;;;;5.10;2.63;;;;;;;12.30;66.24;99134.97;5054286;28;20324;-65
2023/06/03 05:54:32;;;;;;;5.47;2.60;;;;;;;12.18;66.33;99126.31;5054284;28;20025;-64
2023/06/03 05:56:58;;;;;;;3.67;2.60;;;;;;;12.21;66.07;99146.63;5054781;28;20029;-64
2023/06/03 05:59:24;;;;;;;4.60;2.83;;;;;;;12.08;66.47;99141.63;5054641;28;20036;-64
2023/06/03 06:01:50;;;;;;;5.18;2.83;;;;;;;12.05;67.15;99139.22;5053179;28;20438;-65
2023/06/03 06:04:16;;;;;;;4.65;2.50;;;;;;;12.01;66.98;99122.59;5054449;28;20032;-65
2023/06/03 06:06:41;;;;;;;5.32;3.10;;;;;;;11.92;66.46;99116.28;5053837;28;20028;-64
2023/06/03 06:09:07;;;;;;;5.35;3.42;;;;;;;11.92;66.68;99127.00;5054613;28;20029;-65
2023/06/03 06:11:33;;;;;;;3.97;2.90;;;;;;;11.75;66.23;99090.25;5053654;28;20033;-65
2023/06/03 06:13:59;;;;;;;5.78;3.15;;;;;;;12.06;65.93;99123.00;5053408;28;20029;-65
2023/06/03 06:16:24;;;;;;;7.32;2.80;;;;;;;12.13;65.56;99117.88;5054546;28;20040;-64
2023/06/03 06:18:50;;;;;;;4.95;2.97;;;;;;;12.13;65.52;99104.47;5054935;28;20048;-73
2023/06/03 06:21:16;;;;;;;6.05;3.20;;;;;;;12.16;65.81;99109.50;5053583;28;20368;-65
2023/06/03 06:23:42;;;;;;;3.58;3.28;;;;;;;12.18;65.96;99128.16;5053630;28;20091;-65
2023/06/03 06:26:08;;;;;;;3.78;3.33;;;;;;;12.05;65.92;99124.00;5053740;28;20021;-67
2023/06/03 06:28:34;;;;;;;4.25;3.15;;;;;;;11.91;65.75;99111.03;5036190;28;20466;-65
2023/06/03 06:31:04;;;;;;;4.32;3.10;;;;;;;11.86;66.16;99122.25;5053773;28;20463;-66
2023/06/03 06:33:32;;;;;;;4.00;3.42;;;;;;;11.71;66.28;99123.72;5053402;28;20074;-63
2023/06/03 06:36:19;;;;;;;4.45;3.75;;;;;;;11.74;66.44;99131.47;5053650;28;20043;-65
2023/06/03 06:38:44;;;;;;;5.57;4.03;;;;;;;11.70;66.29;99128.25;5012979;28;20453;-66
2023/06/03 06:41:12;;;;;;;4.07;3.65;;;;;;;11.69;66.78;99142.63;5035727;28;20191;-65
2023/06/03 06:43:39;;;;;;;4.35;3.53;;;;;;;11.55;66.44;99138.59;5051616;28;20058;-68
2023/06/03 06:46:05;;;;;;;4.32;3.15;;;;;;;11.45;66.39;99138.66;5053582;28;20025;-64
2023/06/03 06:48:33;;;;;;;5.82;2.90;;;;;;;11.36;66.64;99127.97;5052817;28;20044;-65
2023/06/03 06:50:59;;;;;;;6.15;3.20;;;;;;;11.28;67.30;99134.88;5053338;28;20040;-64
2023/06/03 06:53:27;;;;;;;4.95;2.45;;;;;;;11.24;67.62;99133.50;5052823;28;20452;-64
2023/06/03 06:55:57;;;;;;;2.58;2.35;;;;;;;11.28;68.43;99142.91;5035544;28;20028;-71
2023/06/03 06:58:25;;;;;;;2.60;2.40;;;;;;;11.10;68.66;99115.22;5052963;28;20527;-71
2023/06/03 07:00:51;;;;;;;3.38;2.38;;;;;;;11.17;69.32;99140.44;5034756;28;20041;-65
2023/06/03 07:03:18;;;;;;;4.13;2.42;;;;;;;11.08;69.78;99152.84;5052786;28;20501;-64
2023/06/03 07:05:46;;;;;;;2.40;1.92;;;;;;;11.01;70.32;99165.97;5053211;28;20072;-65
2023/06/03 07:08:12;;;;;;;2.67;2.00;;;;;;;10.92;70.68;99166.84;5052230;28;20122;-63
2023/06/03 07:10:38;;;;;;;2.38;1.73;;;;;;;10.85;71.84;99187.09;5052650;28;20029;-65
2023/06/03 07:13:06;;;;;;;2.92;2.08;;;;;;;10.85;71.94;99196.00;5052994;28;20040;-65
2023/06/03 07:15:32;;;;;;;2.25;2.05;;;;;;;10.69;72.28;99188.53;5035060;28;20065;-65
2023/06/03 07:17:58;;;;;;;5.30;1.80;;;;;;;10.69;73.33;99191.22;5052658;28;20076;-66
2023/06/03 07:20:50;;;;;;;5.47;2.00;;;;;;;10.83;73.04;99183.72;5052873;28;20044;-70
2023/06/03 07:23:21;;;;;;;1.63;1.20;;;;;;;10.60;72.55;99168.81;5047266;28;20079;-66
2023/06/03 07:25:51;;;;;;;2.63;1.40;;;;;;;10.60;72.50;99182.19;5052529;28;20025;-65
2023/06/03 07:28:27;;;;;;;2.42;1.30;;;;;;;10.60;72.96;99187.53;5052763;28;20436;-64
2023/06/03 07:30:52;;;;;;;;;;;;;;;10.95;72.38;99176.41;5053200;28;20096;-66
2023/06/03 07:33:28;;;;;;;5.83;1.17;;;;;;;10.75;72.09;99166.56;5052531;28;19924;-65
2023/06/03 07:35:56;;;;;;;4.78;1.30;;;;;;;10.57;72.96;99186.97;5052924;28;20490;-71
2023/06/03 07:38:37;;;;;;;5.43;1.38;;;;;;;10.62;73.34;99182.06;5034752;28;20043;-64
2023/06/03 07:41:03;;;;;;;3.58;1.02;;;;;;;10.29;72.98;99171.56;5051720;28;20029;-66
2023/06/03 07:43:29;;;;;;;3.15;1.08;;;;;;;10.26;73.56;99176.34;5052599;28;20129;-64
2023/06/03 07:45:55;;;;;;;5.10;1.27;;;;;;;10.15;73.31;99179.97;5052141;28;20025;-70
2023/06/03 07:48:20;;;;;;;2.72;1.05;;;;;;;10.12;73.42;99188.28;5051823;28;20106;-67
2023/06/03 07:50:47;;;;;;;1.35;0.80;;;;;;;9.93;73.04;99154.31;5052133;28;20036;-65
2023/06/03 07:53:23;;;;;;;1.67;1.10;;;;;;;10.22;73.58;99169.56;5052269;28;20088;-64
2023/06/03 07:55:50;;;;;;;4.20;0.80;;;;;;;10.25;73.33;99185.34;5002151;28;20103;-64
2023/06/03 07:58:16;;;;;;;2.90;1.30;;;;;;;10.35;73.69;99183.53;5051653;28;20025;-66
2023/06/03 08:00:49;;;;;;;4.32;1.33;;;;;;;10.49;73.87;99187.69;5051041;28;20055;-64
2023/06/03 08:03:18;;;;;;;1.88;1.13;;;;;;;10.57;72.73;99184.28;5046959;28;20067;-65
2023/06/03 08:05:50;;;;;;;2.83;1.10;;;;;;;10.73;72.29;99197.13;5052062;28;20376;-64
2023/06/03 08:08:18;;;;;;;5.07;1.33;;;;;;;10.68;71.89;99162.75;5033822;28;20197;-63
2023/06/03 08:10:47;;;;;;;5.07;1.38;;;;;;;10.82;71.44;99179.38;5052014;28;20064;-66
2023/06/03 08:13:16;;;;;;;3.58;1.38;;;;;;;10.87;70.22;99195.88;5052562;28;20033;-64
2023/06/03 08:15:42;;;;;;;4.43;1.90;;;;;;;10.74;70.90;99202.34;5048355;28;20030;-56
2023/06/03 08:18:09;;;;;;;4.03;1.33;;;;;;;10.70;71.39;99210.78;5050715;28;20048;-61
2023/06/03 08:20:36;;;;;;;3.10;1.85;;;;;;;10.73;72.33;99221.22;5034614;28;20120;-64
2023/06/03 08:23:05;;;;;;;1.70;1.30;;;;;;;10.71;70.68;99250.81;5050442;28;20099;-67
2023/06/03 08:25:31;;;;;;;1.58;1.23;;;;;;;10.38;70.78;99247.50;5045452;28;20462;-65
2023/06/03 08:27:57;;;;;;;1.27;1.10;;;;;;;10.42;71.55;99282.88;5040989;28;20093;-64
2023/06/03 08:30:23;;;;;;;1.77;1.02;;;;;;;10.34;71.65;99291.53;5042522;28;20025;-65
2023/06/03 08:32:50;;;;;;;2.75;1.25;;;;;;;10.30;72.49;99306.19;5041950;28;20037;-64
2023/06/03 08:35:23;;;;;;;2.33;1.35;;;;;;;10.23;72.21;99310.38;5040817;28;20029;-66
2023/06/03 08:37:48;;;;;;;4.72;1.20;;;;;;;10.09;72.24;99299.03;5042708;28;20112;-65
2023/06/03 08:40:17;;;;;;;2.28;1.13;;;;;;;10.03;71.72;99304.94;5041177;28;20116;-65
2023/06/03 08:42:48;;;;;;;3.17;1.10;;;;;;;10.07;72.76;99317.06;5040236;28;20036;-64
2023/06/03 08:45:18;;;;;;;5.30;1.20;;;;;;;10.08;72.99;99308.06;5040895;28;20338;-63
2023/06/03 08:48:02;;;;;;;1.48;1.20;;;;;;;9.99;72.75;99288.31;5042023;28;20075;-65
2023/06/03 08:50:28;;;;;;;3.40;1.25;;;;;;;10.00;73.71;99281.16;5041839;28;20033;-66
2023/06/03 08:52:55;;;;;;;2.80;1.40;;;;;;;10.02;73.33;99288.06;5031148;28;20381;-66
2023/06/03 08:55:21;;;;;;;3.67;1.20;;;;;;;10.00;73.60;99284.66;5041792;28;20036;-65
2023/06/03 08:58:03;;;;;;;2.05;1.02;;;;;;;10.16;73.23;99300.22;5041800;28;20096;-65
2023/06/03 09:00:30;;;;;;;3.13;1.10;;;;;;;10.07;72.94;99325.09;5042154;28;20078;-66
2023/06/03 09:02:56;;;;;;;3.05;1.30;;;;;;;10.04;72.62;99330.69;5031774;28;20117;-64
2023/06/03 09:05:22;;;;;;;2.83;1.00;;;;;;;10.10;72.73;99343.53;5040738;28;20112;-67
2023/06/03 09:07:51;;;;;;;0.88;0.70;;;;;;;10.27;72.78;99351.94;5048247;28;20957;-66
2023/06/03 09:10:25;;;;;;;1.15;0.90;;;;;;;10.15;71.68;99352.03;5044944;28;20127;-66
2023/06/03 09:12:54;;;;;;;2.15;1.02;;;;;;;10.12;72.03;99362.97;5046921;28;20037;-71
2023/06/03 09:15:21;;;;;;;4.95;1.10;;;;;;;10.13;72.83;99356.69;5035113;28;20021;-65
2023/06/03 09:17:47;;;;;;;3.17;1.10;;;;;;;10.09;71.98;99346.38;5045634;28;20037;-64
2023/06/03 09:20:14;;;;;;;1.80;1.20;;;;;;;10.18;72.64;99346.41;5036725;28;20047;-65
2023/06/03 09:22:46;;;;;;;3.80;1.60;;;;;;;10.29;71.55;99349.97;5054680;28;20036;-66
2023/06/03 09:25:12;;;;;;;5.38;1.85;;;;;;;10.32;72.24;99352.38;5054142;28;20117;-65
2023/06/03 09:27:38;;;;;;;5.93;2.40;;;;;;;10.50;71.59;99352.66;5054101;28;20024;-65
2023/06/03 09:30:05;;;;;;;4.60;2.38;;;;;;;10.55;70.42;99336.16;5054347;28;20052;-65
2023/06/03 09:32:35;;;;;;;4.93;2.70;;;;;;;10.30;70.10;99277.59;5053074;28;20110;-64
2023/06/03 09:35:04;;;;;;;6.38;1.95;;;;;;;10.60;70.19;99325.88;5054344;28;20463;-64
2023/06/03 09:37:33;;;;;;;29.80;14.60;;;;;;;10.68;69.70;99309.16;5054174;28;20037;-64
2023/06/03 09:40:04;;;;;;;10.30;5.20;;;;;;;10.72;69.71;99311.41;5055484;28;20055;-63
2023/06/03 09:42:41;;;;;;;8.80;2.97;;;;;;;10.83;69.74;99317.63;5054105;28;20025;-70
2023/06/03 09:45:21;;;;;;;3.00;1.70;;;;;;;10.84;69.80;99324.66;5034614;28;20067;-66
2023/06/03 09:47:47;;;;;;;4.85;2.00;;;;;;;10.88;68.41;99323.44;5048728;28;20444;-63
2023/06/03 09:50:13;;;;;;;5.15;1.63;;;;;;;10.96;69.13;99344.16;5036187;28;20036;-62
2023/06/03 09:52:38;;;;;;;2.08;1.30;;;;;;;10.96;68.81;99353.03;5035646;28;20025;-64
2023/06/03 09:55:06;;;;;;;2.58;1.58;;;;;;;11.00;68.11;99367.03;5053418;28;20426;-63
2023/06/03 09:57:33;;;;;;;12.63;7.55;;;;;;;10.86;67.68;99349.50;5049597;28;20121;-68
2023/06/03 10:00:11;;;;;;;4.07;2.33;;;;;;;10.89;68.54;99343.88;5050152;28;20032;-65
2023/06/03 10:02:38;;;;;;;4.05;2.15;;;;;;;10.75;68.23;99345.13;5052696;28;20381;-67
2023/06/03 10:05:04;;;;;;;4.43;1.92;;;;;;;10.83;68.07;99355.13;5036125;28;20021;-66
2023/06/03 10:07:30;;;;;;;2.00;1.10;;;;;;;10.86;67.19;99360.22;5046169;28;20102;-74
2023/06/03 10:10:04;;;;;;;3.47;1.77;;;;;;;10.90;67.46;99354.44;5047449;28;20453;-65
2023/06/03 10:12:31;;;;;;;3.40;1.90;;;;;;;10.96;67.50;99376.28;5044628;28;20025;-66
2023/06/03 10:14:59;;;;;;;5.50;1.65;;;;;;;10.89;66.95;99362.63;5012069;28;20087;-66
2023/06/03 10:17:26;;;;;;;3.65;1.90;;;;;;;10.87;66.86;99384.19;5009237;28;20042;-65
2023/06/03 10:19:52;;;;;;;5.45;1.50;;;;;;;10.69;67.27;99377.78;5011863;28;20058;-65
2023/06/03 10:22:19;;;;;;;1.75;1.20;;;;;;;10.61;66.72;99379.31;4995008;28;20485;-63
2023/06/03 10:24:47;;;;;;;4.38;1.55;;;;;;;10.64;67.27;99394.25;5011606;28;20126;-64
2023/06/03 10:27:15;;;;;;;2.47;1.55;;;;;;;10.60;67.35;99399.03;5011999;28;20041;-63
2023/06/03 10:29:40;;;;;;;2.70;1.60;;;;;;;10.56;67.42;99402.97;4995631;28;20092;-64
2023/06/03 10:32:08;;;;;;;2.55;1.55;;;;;;;10.50;67.52;99387.44;5011447;28;20025;-64
2023/06/03 10:34:41;;;;;;;4.53;1.60;;;;;;;10.73;67.73;99412.19;5011365;28;20373;-66
2023/06/03 10:37:08;;;;;;;2.72;1.63;;;;;;;10.80;67.41;99419.66;5012043;28;20042;-64
2023/06/03 10:39:34;;;;;;;7.22;4.32;;;;;;;10.69;65.65;99412.56;5010593;28;20073;-65
2023/06/03 10:42:03;;;;;;;5.45;3.83;;;;;;;10.62;65.40;99426.50;5012106;28;20536;-65
2023/06/03 10:44:30;;;;;;;2.50;1.30;;;;;;;10.53;65.01;99421.09;4995058;28;20129;-69
2023/06/03 10:47:03;;;;;;;1.77;1.40;;;;;;;10.58;64.90;99432.25;5011527;28;20446;-65
2023/06/03 10:49:41;;;;;;;2.97;1.50;;;;;;;10.57;65.30;99444.81;5011644;28;20034;-66
2023/06/03 10:52:27;;;;;;;3.00;1.48;;;;;;;10.77;64.93;99459.13;4996931;28;20087;-64
2023/06/03 10:55:18;;;;;;;4.13;1.77;;;;;;;10.95;64.78;99450.47;5033247;28;20029;-64
2023/06/03 10:57:59;;;;;;;1.83;1.42;;;;;;;10.68;63.95;99430.47;5034261;28;20095;-63
2023/06/03 11:01:01;;;;;;;2.38;1.55;;;;;;;10.86;64.69;99478.06;5050339;28;20356;-65
2023/06/03 11:03:54;;;;;;;2.55;1.40;;;;;;;10.76;64.98;99473.50;4937066;29;20613;-64
2023/06/03 11:06:21;;;;;;;2.88;1.50;;;;;;;10.77;64.88;99477.03;5048831;28;20049;-65
2023/06/03 11:09:08;;;;;;;3.50;1.80;;;;;;;10.74;64.60;99485.34;5053092;28;20033;-64
2023/06/03 11:11:44;;;;;;;2.65;1.50;;;;;;;10.64;64.97;99493.31;5035238;28;20037;-66
2023/06/03 11:14:26;;;;;;;2.40;1.65;;;;;;;10.51;65.04;99496.19;5052453;28;20033;-64
2023/06/03 11:16:57;;;;;;;1.20;1.10;;;;;;;10.34;65.39;99513.66;5052679;28;20044;-66
2023/06/03 11:19:50;;;;;;;3.10;1.30;;;;;;;10.36;65.16;99498.31;5052561;28;20049;-63
2023/06/03 11:22:28;;;;;;;3.90;1.60;;;;;;;10.23;64.90;99513.72;5026753;28;20541;-65
2023/06/03 11:24:58;;;;;;;2.17;1.60;;;;;;;9.90;65.28;99511.91;5035188;28;20067;-65
2023/06/03 11:27:28;;;;;;;3.15;2.00;;;;;;;9.95;65.90;99532.09;5052820;28;20036;-64
2023/06/03 11:29:59;;;;;;;3.28;2.10;;;;;;;10.02;65.49;99538.59;5034871;28;20098;-65
2023/06/03 11:32:26;;;;;;;2.67;1.88;;;;;;;9.99;65.35;99549.56;5034527;28;20025;-64
2023/06/03 11:35:04;;;;;;;5.68;2.08;;;;;;;10.13;65.14;99561.78;5052645;28;20062;-64
2023/06/03 11:37:48;;;;;;;3.65;1.85;;;;;;;10.17;65.25;99548.03;5050766;28;20025;-65